createdAt,value
2023-03-27T00:01:19.223Z,94494.16
2023-03-27T00:03:49.799Z,94500.72
2023-03-27T00:06:20.234Z,94506.28
2023-03-27T00:08:52.033Z,94528.97
2023-03-27T00:11:21.235Z,94519.88
2023-03-27T00:13:51.369Z,94520.66
2023-03-27T00:16:20.393Z,94527.06
2023-03-27T00:18:48.950Z,94531.84
2023-03-27T00:21:17.375Z,94534.16
2023-03-27T00:23:45.709Z,94536.28
2023-03-27T00:26:15.551Z,94535.44
2023-03-27T00:28:43.979Z,94532.78
2023-03-27T00:31:13.836Z,94534.88
2023-03-27T00:33:43.010Z,94533.81
2023-03-27T00:36:12.809Z,94537.63
2023-03-27T00:38:41.673Z,94534.13
2023-03-27T00:41:10.371Z,94534.94
2023-03-27T00:43:44.211Z,94546.16
2023-03-27T00:46:38.980Z,94549.38
2023-03-27T00:49:11.946Z,94547.75
2023-03-27T00:51:44.018Z,94505.94
2023-03-27T00:54:16.386Z,94517.53
2023-03-27T00:56:45.994Z,94547.78
2023-03-27T00:59:21.464Z,94551.41
2023-03-27T01:01:50.385Z,94522.81
2023-03-27T01:04:21.708Z,94543.34
2023-03-27T01:06:52.910Z,94550.31
2023-03-27T01:09:21.853Z,94515.13
2023-03-27T01:12:05.653Z,94561.63
2023-03-27T01:14:42.137Z,94548.78
2023-03-27T01:17:27.497Z,94565.28
2023-03-27T01:20:47.374Z,94576.94
2023-03-27T01:24:00.032Z,94567.56
2023-03-27T01:26:58.407Z,94585.44
2023-03-27T01:29:47.508Z,94589.22
2023-03-27T01:32:54.453Z,94587.44
2023-03-27T01:35:38.322Z,94595.34
2023-03-27T01:38:16.928Z,94598.50
2023-03-27T01:40:52.257Z,94600.84
2023-03-27T01:43:27.589Z,94617.03
2023-03-27T01:45:58.896Z,94615.66
2023-03-27T01:48:34.334Z,94622.34
2023-03-27T01:51:05.240Z,94612.44
2023-03-27T01:53:38.429Z,94625.53
2023-03-27T01:56:18.260Z,94629.34
2023-03-27T01:58:50.000Z,94638.94
2023-03-27T02:01:22.821Z,94636.81
2023-03-27T02:03:56.077Z,94646.34
2023-03-27T02:06:29.059Z,94653.25
2023-03-27T02:09:03.096Z,94661.75
2023-03-27T02:11:36.511Z,94658.84
2023-03-27T02:14:09.052Z,94669.28
2023-03-27T02:16:43.085Z,94667.84
2023-03-27T02:19:15.404Z,94678.31
2023-03-27T02:21:43.732Z,94678.88
2023-03-27T02:24:13.181Z,94681.38
2023-03-27T02:26:43.188Z,94686.94
2023-03-27T02:29:37.900Z,94696.59
2023-03-27T02:32:18.386Z,94707.28
2023-03-27T02:35:10.344Z,94717.56
2023-03-27T02:37:50.824Z,94709.59
2023-03-27T02:40:27.874Z,94719.53
2023-03-27T02:43:07.654Z,94715.25
2023-03-27T02:45:44.999Z,94732.78
2023-03-27T02:48:19.684Z,94736.41
2023-03-27T02:50:53.273Z,94726.41
2023-03-27T02:53:25.202Z,94747.09
2023-03-27T02:55:56.050Z,94759.56
2023-03-27T02:58:32.448Z,94749.97
2023-03-27T03:01:02.382Z,94776.97
2023-03-27T03:03:37.895Z,94782.59
2023-03-27T03:06:07.566Z,94779.38
2023-03-27T03:08:39.276Z,94788.38
2023-03-27T03:11:11.354Z,94799.66
2023-03-27T03:13:41.669Z,94803.53
2023-03-27T03:16:11.301Z,94804.16
2023-03-27T03:18:39.652Z,94807.22
2023-03-27T03:21:08.685Z,94810.56
2023-03-27T03:23:37.053Z,94821.03
2023-03-27T03:26:06.789Z,94830.22
2023-03-27T03:28:36.206Z,94832.28
2023-03-27T03:31:06.711Z,94832.22
2023-03-27T03:33:35.891Z,94841.78
2023-03-27T03:36:04.655Z,94847.56
2023-03-27T03:38:38.143Z,94837.44
2023-03-27T03:41:06.861Z,94855.44
2023-03-27T03:43:35.385Z,94829.63
2023-03-27T03:46:04.153Z,94858.56
2023-03-27T03:48:33.986Z,94868.81
2023-03-27T03:51:02.304Z,94880.47
2023-03-27T03:53:30.640Z,94836.22
2023-03-27T03:55:59.288Z,94890.69
2023-03-27T03:58:34.924Z,94889.09
2023-03-27T04:01:04.481Z,94889.38
2023-03-27T04:03:34.752Z,94880.19
2023-03-27T04:06:05.666Z,94907.88
2023-03-27T04:08:34.494Z,94918.72
2023-03-27T04:11:02.811Z,94864.81
2023-03-27T04:13:31.541Z,94924.19
2023-03-27T04:16:02.127Z,94930.63
2023-03-27T04:18:33.011Z,94934.34
2023-03-27T04:21:03.623Z,94920.13
2023-03-27T04:23:33.880Z,94945.75
2023-03-27T04:26:04.199Z,94935.13
2023-03-27T04:28:34.721Z,94953.13
2023-03-27T04:31:06.635Z,94930.06
2023-03-27T04:33:35.530Z,94957.28
2023-03-27T04:36:07.838Z,94965.81
2023-03-27T04:38:37.133Z,94969.16
2023-03-27T04:41:05.841Z,94975.50
2023-03-27T04:43:36.858Z,94982.41
2023-03-27T04:46:06.137Z,94981.13
2023-03-27T04:48:34.861Z,94987.34
2023-03-27T04:51:05.264Z,94988.28
2023-03-27T04:53:36.295Z,95008.09
2023-03-27T04:56:05.103Z,94957.09
2023-03-27T04:58:36.688Z,94990.66
2023-03-27T05:01:06.130Z,94964.81
2023-03-27T05:03:35.051Z,95036.47
2023-03-27T05:06:05.921Z,95042.31
2023-03-27T05:08:34.194Z,95017.72
2023-03-27T05:11:03.065Z,95057.50
2023-03-27T05:13:31.473Z,95049.88
2023-03-27T05:16:01.973Z,95062.78
2023-03-27T05:18:31.265Z,95067.88
2023-03-27T05:20:59.706Z,95067.78
2023-03-27T05:23:30.214Z,95042.84
2023-03-27T05:26:00.314Z,95088.44
2023-03-27T05:28:29.898Z,95092.81
2023-03-27T05:30:58.733Z,95104.53
2023-03-27T05:33:27.346Z,95114.38
2023-03-27T05:35:57.615Z,95117.69
2023-03-27T05:38:28.443Z,95123.06
2023-03-27T05:40:56.955Z,94973.91
2023-03-27T05:43:25.639Z,95136.63
2023-03-27T05:45:54.030Z,95145.16
2023-03-27T05:48:22.460Z,95125.41
2023-03-27T05:50:50.850Z,95149.50
2023-03-27T05:53:19.721Z,95135.50
2023-03-27T05:55:50.011Z,95163.47
2023-03-27T05:58:31.796Z,95158.78
2023-03-27T06:01:00.752Z,95116.19
2023-03-27T06:03:30.950Z,95171.22
2023-03-27T06:06:00.403Z,95178.72
2023-03-27T06:08:28.976Z,95183.56
2023-03-27T06:10:58.908Z,95182.44
2023-03-27T06:13:29.088Z,95172.22
2023-03-27T06:15:57.725Z,95188.63
2023-03-27T06:18:26.356Z,95191.50
2023-03-27T06:20:54.770Z,95191.06
2023-03-27T06:23:23.451Z,95202.25
2023-03-27T06:25:53.223Z,95196.38
2023-03-27T06:28:23.085Z,95209.75
2023-03-27T06:30:51.879Z,95206.66
2023-03-27T06:33:20.304Z,95172.22
2023-03-27T06:35:53.214Z,95214.19
2023-03-27T06:38:23.099Z,95216.25
2023-03-27T06:40:51.879Z,95221.25
2023-03-27T06:43:22.588Z,95146.75
2023-03-27T06:45:53.009Z,95178.25
2023-03-27T06:48:22.607Z,95220.75
2023-03-27T06:50:52.817Z,95221.31
2023-03-27T06:55:53.076Z,95237.91
2023-03-27T06:58:22.208Z,95236.66
2023-03-27T07:00:52.250Z,95249.53
2023-03-27T07:03:23.045Z,95249.97
2023-03-27T07:05:51.372Z,95249.66
2023-03-27T07:08:24.158Z,95258.44
2023-03-27T07:13:24.698Z,95271.47
2023-03-27T07:15:55.067Z,95160.00
2023-03-27T07:18:24.048Z,95266.31
2023-03-27T07:20:52.941Z,95268.97
2023-03-27T07:23:21.584Z,95027.44
2023-03-27T07:25:50.367Z,95273.81
2023-03-27T07:28:18.897Z,95280.91
2023-03-27T07:30:47.454Z,95273.09
2023-03-27T07:33:17.283Z,95246.50
2023-03-27T07:35:46.638Z,95282.22
2023-03-27T07:38:16.254Z,95211.66
2023-03-27T07:40:46.510Z,95285.53
2023-03-27T07:43:15.543Z,95293.84
2023-03-27T07:45:44.373Z,95292.09
2023-03-27T07:48:16.391Z,95292.91
2023-03-27T07:50:46.525Z,95295.47
2023-03-27T07:53:33.909Z,95297.53
2023-03-27T07:56:03.998Z,95297.97
2023-03-27T07:58:32.429Z,95301.06
2023-03-27T08:01:02.792Z,95278.00
2023-03-27T08:03:32.119Z,95315.34
2023-03-27T08:06:02.238Z,95295.44
2023-03-27T08:08:30.934Z,95309.44
2023-03-27T08:11:00.671Z,95317.69
2023-03-27T08:13:29.595Z,95321.81
2023-03-27T08:16:04.717Z,95269.81
2023-03-27T08:18:33.552Z,95322.66
2023-03-27T08:21:04.839Z,95305.28
2023-03-27T08:23:33.996Z,95335.94
2023-03-27T08:26:03.827Z,95333.28
2023-03-27T08:28:34.151Z,95332.28
2023-03-27T08:31:04.564Z,95348.94
2023-03-27T08:33:33.037Z,95339.75
2023-03-27T08:36:01.320Z,95344.00
2023-03-27T08:38:33.469Z,95354.06
2023-03-27T08:41:03.870Z,95361.88
2023-03-27T08:43:38.134Z,95359.06
2023-03-27T08:46:10.254Z,95367.09
2023-03-27T08:48:45.088Z,95375.44
2023-03-27T08:51:18.527Z,95385.47
2023-03-27T08:53:53.802Z,95333.94
2023-03-27T08:56:22.697Z,95382.66
2023-03-27T08:58:51.152Z,95393.84
2023-03-27T09:01:29.481Z,95395.75
2023-03-27T09:04:04.370Z,95399.69
2023-03-27T09:06:40.730Z,95395.47
2023-03-27T09:09:17.847Z,95393.19
2023-03-27T09:11:55.868Z,95368.78
2023-03-27T09:14:31.512Z,95406.34
2023-03-27T09:17:05.360Z,95406.19
2023-03-27T09:19:41.049Z,95407.50
2023-03-27T09:22:15.472Z,95416.19
2023-03-27T09:24:50.232Z,95410.09
2023-03-27T09:27:23.322Z,95419.47
2023-03-27T09:30:06.124Z,95412.41
2023-03-27T09:32:35.164Z,95416.91
2023-03-27T09:35:04.864Z,95419.22
2023-03-27T09:37:35.143Z,95419.03
2023-03-27T09:40:13.068Z,95429.56
2023-03-27T09:42:43.557Z,95429.19
2023-03-27T09:45:14.474Z,95416.63
2023-03-27T09:47:51.113Z,95365.38
2023-03-27T09:50:27.876Z,95432.72
2023-03-27T09:53:09.459Z,95431.25
2023-03-27T09:55:53.057Z,95450.38
2023-03-27T09:58:35.602Z,95449.56
2023-03-27T10:01:15.879Z,95441.81
2023-03-27T10:03:50.204Z,95446.00
2023-03-27T10:06:27.366Z,95451.94
2023-03-27T10:08:56.628Z,95413.00
2023-03-27T10:11:28.928Z,95436.91
2023-03-27T10:14:00.037Z,95444.44
2023-03-27T10:16:30.032Z,95448.75
2023-03-27T10:19:01.340Z,95450.47
2023-03-27T10:21:34.002Z,95430.69
2023-03-27T10:24:05.875Z,95461.69
2023-03-27T10:26:38.656Z,95461.59
2023-03-27T10:29:23.224Z,95427.16
2023-03-27T10:31:53.431Z,95465.88
2023-03-27T10:34:38.242Z,95450.84
2023-03-27T10:37:21.935Z,95443.19
2023-03-27T10:39:50.508Z,95466.81
2023-03-27T10:42:22.858Z,95454.28
2023-03-27T10:44:55.003Z,95458.69
2023-03-27T10:47:25.793Z,95466.31
2023-03-27T10:50:04.859Z,95467.44
2023-03-27T10:52:44.680Z,95450.94
2023-03-27T10:55:33.249Z,95479.28
2023-03-27T10:58:06.918Z,95479.53
2023-03-27T11:00:36.894Z,95478.94
2023-03-27T11:03:12.741Z,95475.69
2023-03-27T11:05:44.789Z,95464.44
2023-03-27T11:08:17.580Z,95485.22
2023-03-27T11:10:47.884Z,95481.50
2023-03-27T11:13:23.283Z,95455.75
2023-03-27T11:15:55.821Z,95447.78
2023-03-27T11:18:27.124Z,95481.03
2023-03-27T11:20:59.838Z,95487.53
2023-03-27T11:23:33.447Z,95507.41
2023-03-27T11:26:02.716Z,95494.97
2023-03-27T11:28:43.059Z,95504.22
2023-03-27T11:31:21.572Z,95416.41
2023-03-27T11:33:54.035Z,95503.22
2023-03-27T11:36:33.973Z,95477.94
2023-03-27T11:39:13.738Z,95493.09
2023-03-27T11:41:42.090Z,95508.31
2023-03-27T11:44:12.903Z,95488.88
2023-03-27T11:46:55.624Z,95518.72
2023-03-27T11:49:39.503Z,95512.63
2023-03-27T11:52:21.224Z,95504.41
2023-03-27T11:55:06.793Z,95499.88
2023-03-27T11:57:43.069Z,95521.94
2023-03-27T12:00:19.562Z,95515.53
2023-03-27T12:03:15.158Z,95523.59
2023-03-27T12:05:57.466Z,95512.44
2023-03-27T12:08:36.270Z,95516.16
2023-03-27T12:11:08.969Z,95519.38
2023-03-27T12:14:01.196Z,95517.91
2023-03-27T12:16:59.436Z,95520.00
2023-03-27T12:19:44.423Z,95514.78
2023-03-27T12:22:24.730Z,95519.69
2023-03-27T12:25:05.697Z,95487.63
2023-03-27T12:27:47.642Z,95515.31
2023-03-27T12:30:25.047Z,95513.22
2023-03-27T12:33:27.062Z,95511.81
2023-03-27T12:35:58.646Z,95527.47
2023-03-27T12:38:31.278Z,95513.38
2023-03-27T12:41:08.794Z,95498.63
2023-03-27T12:43:41.209Z,95496.84
2023-03-27T12:46:16.626Z,95496.78
2023-03-27T12:48:56.420Z,95509.41
2023-03-27T12:51:39.266Z,95503.44
2023-03-27T12:54:17.275Z,95505.50
2023-03-27T12:56:45.618Z,95501.59
2023-03-27T12:59:23.974Z,95507.91
2023-03-27T13:02:31.057Z,95515.69
2023-03-27T13:05:31.058Z,95514.66
2023-03-27T13:08:21.505Z,95518.75
2023-03-27T13:10:59.273Z,95556.25
2023-03-27T13:14:03.023Z,95546.47
2023-03-27T13:16:53.344Z,95554.19
2023-03-27T13:19:33.101Z,95556.50
2023-03-27T13:22:23.708Z,95570.06
2023-03-27T13:25:08.655Z,95568.16
2023-03-27T13:27:50.913Z,95577.94
2023-03-27T13:30:45.517Z,95569.69
2023-03-27T13:33:18.403Z,95577.69
2023-03-27T13:36:04.179Z,95587.78
2023-03-27T13:39:01.777Z,95596.72
2023-03-27T13:41:53.951Z,95583.72
2023-03-27T13:44:29.614Z,95584.31
2023-03-27T13:47:08.470Z,95581.66
2023-03-27T13:50:05.175Z,95572.28
2023-03-27T13:53:01.323Z,95523.72
2023-03-27T13:58:45.042Z,95562.91
2023-03-27T14:01:35.957Z,95563.13
2023-03-27T14:04:29.481Z,95558.75
2023-03-27T14:07:33.796Z,95551.25
2023-03-27T14:10:20.180Z,95546.81
2023-03-27T14:13:03.241Z,95554.09
2023-03-27T14:15:45.247Z,95561.78
2023-03-27T14:18:31.311Z,95567.13
2023-03-27T14:21:01.920Z,95564.72
2023-03-27T14:23:33.718Z,95566.41
2023-03-27T14:26:04.765Z,95561.88
2023-03-27T14:28:51.810Z,95568.72
2023-03-27T14:31:24.001Z,95570.53
2023-03-27T14:33:53.331Z,95569.56
2023-03-27T14:36:26.083Z,95573.56
2023-03-27T14:38:54.705Z,95568.53
2023-03-27T14:41:25.706Z,95555.22
2023-03-27T14:43:57.071Z,95566.41
2023-03-27T14:46:27.855Z,95557.69
2023-03-27T14:48:59.604Z,95570.34
2023-03-27T14:51:37.320Z,95540.88
2023-03-27T14:54:08.493Z,95561.91
2023-03-27T14:56:41.702Z,95579.09
2023-03-27T14:59:15.311Z,95573.94
2023-03-27T15:01:45.084Z,95575.78
2023-03-27T15:04:15.399Z,95592.38
2023-03-27T15:06:44.079Z,95606.38
2023-03-27T15:09:16.397Z,95605.16
2023-03-27T15:11:49.421Z,95599.31
2023-03-27T15:14:21.076Z,95607.91
2023-03-27T15:16:56.221Z,95599.47
2023-03-27T15:19:28.885Z,95601.56
2023-03-27T15:22:02.014Z,95607.56
2023-03-27T15:24:37.824Z,95564.28
2023-03-27T15:27:07.165Z,95604.94
2023-03-27T15:29:41.086Z,95610.25
2023-03-27T15:32:15.068Z,95628.69
2023-03-27T15:34:47.800Z,95652.81
2023-03-27T15:37:23.422Z,95645.13
2023-03-27T15:40:07.339Z,95673.69
2023-03-27T15:42:47.569Z,95678.97
2023-03-27T15:45:17.886Z,95688.69
2023-03-27T15:48:02.006Z,95573.00
2023-03-27T15:50:30.474Z,95688.47
2023-03-27T15:53:01.520Z,95670.44
2023-03-27T15:55:36.780Z,95678.19
2023-03-27T15:58:17.718Z,95684.59
2023-03-27T16:00:48.789Z,95656.41
2023-03-27T16:03:23.172Z,95677.00
2023-03-27T16:05:52.877Z,95689.41
2023-03-27T16:08:31.885Z,95695.41
2023-03-27T16:11:00.854Z,95627.47
2023-03-27T16:13:34.922Z,95694.66
2023-03-27T16:16:05.196Z,95696.63
2023-03-27T16:18:38.162Z,95699.41
2023-03-27T16:21:08.445Z,95703.13
2023-03-27T16:23:37.424Z,95696.31
2023-03-27T16:26:08.095Z,95696.03
2023-03-27T16:28:36.979Z,95693.50
2023-03-27T16:31:12.751Z,95690.72
2023-03-27T16:33:45.312Z,95698.31
2023-03-27T16:36:15.775Z,95706.03
2023-03-27T16:38:44.390Z,95680.50
2023-03-27T16:41:15.187Z,95705.22
2023-03-27T16:43:44.007Z,95705.59
2023-03-27T16:46:18.713Z,95689.63
2023-03-27T16:48:48.768Z,95758.69
2023-03-27T16:51:17.046Z,95741.78
2023-03-27T16:53:45.474Z,95756.34
2023-03-27T16:56:14.437Z,95760.59
2023-03-27T16:58:43.034Z,95758.06
2023-03-27T17:01:11.661Z,95752.19
2023-03-27T17:03:40.167Z,95686.19
2023-03-27T17:06:12.801Z,95761.91
2023-03-27T17:08:41.594Z,95760.66
2023-03-27T17:11:11.341Z,95650.84
2023-03-27T17:13:43.126Z,95756.16
2023-03-27T17:16:12.421Z,95760.72
2023-03-27T17:18:41.039Z,95769.31
2023-03-27T17:21:10.921Z,95770.63
2023-03-27T17:23:39.394Z,95776.72
2023-03-27T17:26:09.242Z,95772.34
2023-03-27T17:28:40.222Z,95772.16
2023-03-27T17:31:08.698Z,95777.88
2023-03-27T17:33:37.133Z,95769.56
2023-03-27T17:36:11.294Z,95792.81
2023-03-27T17:38:39.996Z,95787.94
2023-03-27T17:41:08.537Z,95789.56
2023-03-27T17:43:36.882Z,95789.56
2023-03-27T17:46:05.466Z,95789.59
2023-03-27T17:48:34.849Z,95733.47
2023-03-27T17:51:08.718Z,95793.75
2023-03-27T17:53:40.216Z,95789.53
2023-03-27T17:56:10.513Z,95678.44
2023-03-27T17:58:38.809Z,95799.78
2023-03-27T18:01:17.826Z,95805.50
2023-03-27T18:03:46.910Z,95802.69
2023-03-27T18:06:17.451Z,95776.69
2023-03-27T18:08:47.994Z,95803.88
2023-03-27T18:11:17.715Z,95726.84
2023-03-27T18:13:51.472Z,95806.84
2023-03-27T18:16:20.526Z,95813.16
2023-03-27T18:18:51.387Z,95819.56
2023-03-27T18:21:19.735Z,95823.41
2023-03-27T18:23:49.533Z,95822.44
2023-03-27T18:26:18.101Z,95799.59
2023-03-27T18:28:46.370Z,95823.63
2023-03-27T18:31:15.946Z,95816.38
2023-03-27T18:33:44.306Z,95832.63
2023-03-27T18:36:13.204Z,95779.72
2023-03-27T18:38:42.584Z,95803.94
2023-03-27T18:41:12.660Z,95839.75
2023-03-27T18:43:41.033Z,95830.03
2023-03-27T18:46:10.992Z,95843.03
2023-03-27T18:48:39.377Z,95844.53
2023-03-27T18:51:08.213Z,95857.19
2023-03-27T18:53:36.777Z,95815.25
2023-03-27T18:56:05.994Z,95861.09
2023-03-27T18:58:35.998Z,95756.97
2023-03-27T19:01:09.676Z,95858.25
2023-03-27T19:03:39.610Z,95830.31
2023-03-27T19:06:10.420Z,95872.88
2023-03-27T19:08:39.509Z,95858.25
2023-03-27T19:11:08.544Z,95873.94
2023-03-27T19:13:38.587Z,95864.56
2023-03-27T19:16:14.347Z,95838.50
2023-03-27T19:18:43.880Z,95834.59
2023-03-27T19:21:12.467Z,95763.72
2023-03-27T19:23:40.825Z,95829.50
2023-03-27T19:26:10.291Z,95867.41
2023-03-27T19:28:40.472Z,95886.38
2023-03-27T19:31:10.648Z,95842.16
2023-03-27T19:33:40.876Z,95836.22
2023-03-27T19:36:10.227Z,95825.44
2023-03-27T19:38:38.861Z,95820.94
2023-03-27T19:41:11.126Z,95864.56
2023-03-27T19:43:40.883Z,95793.25
2023-03-27T19:46:16.492Z,95855.19
2023-03-27T19:48:45.495Z,95869.88
2023-03-27T19:51:14.147Z,95676.78
2023-03-27T19:53:43.583Z,95856.41
2023-03-27T19:56:13.006Z,95829.94
2023-03-27T19:58:44.135Z,95863.53
2023-03-27T20:01:12.947Z,95858.47
2023-03-27T20:03:41.669Z,95846.44
2023-03-27T20:06:18.172Z,95872.50
2023-03-27T20:08:46.978Z,95857.03
2023-03-27T20:11:15.341Z,95895.16
2023-03-27T20:13:55.224Z,95892.72
2023-03-27T20:16:25.271Z,95879.44
2023-03-27T20:19:04.068Z,95817.09
2023-03-27T20:21:34.801Z,95883.72
2023-03-27T20:24:03.403Z,95884.97
2023-03-27T20:26:39.040Z,95887.41
2023-03-27T20:29:10.614Z,95851.09
2023-03-27T20:31:40.479Z,95859.69
2023-03-27T20:34:10.249Z,95864.97
2023-03-27T20:36:39.331Z,95876.41
2023-03-27T20:39:09.181Z,95875.56
2023-03-27T20:41:39.402Z,95886.19
2023-03-27T20:44:27.291Z,95878.44
2023-03-27T20:47:03.358Z,95880.50
2023-03-27T20:49:40.558Z,95866.81
2023-03-27T20:52:09.929Z,95847.25
2023-03-27T20:54:39.048Z,95878.84
2023-03-27T20:57:07.948Z,95887.81
2023-03-27T20:59:38.113Z,95879.88
2023-03-27T21:02:06.918Z,95822.41
2023-03-27T21:04:35.233Z,95883.94
2023-03-27T21:07:03.549Z,95886.59
2023-03-27T21:09:32.156Z,95885.78
2023-03-27T21:12:01.439Z,95890.66
2023-03-27T21:14:29.760Z,95890.66
2023-03-27T21:16:59.596Z,95884.97
2023-03-27T21:19:27.941Z,95862.56
2023-03-27T21:21:56.445Z,95894.75
2023-03-27T21:24:24.788Z,95882.31
2023-03-27T21:26:53.061Z,95896.78
2023-03-27T21:29:21.407Z,95892.31
2023-03-27T21:31:49.814Z,95888.63
2023-03-27T21:34:19.667Z,95909.63
2023-03-27T21:36:48.138Z,95901.84
2023-03-27T21:39:16.467Z,95905.13
2023-03-27T21:41:44.811Z,95910.41
2023-03-27T21:44:13.184Z,95901.88
2023-03-27T21:46:41.551Z,95889.22
2023-03-27T21:49:10.200Z,95904.09
2023-03-27T21:51:40.297Z,95902.47
2023-03-27T21:54:08.591Z,95908.19
2023-03-27T21:56:36.954Z,95914.72
2023-03-27T21:59:05.361Z,95913.91
2023-03-27T22:01:33.707Z,95875.31
2023-03-27T22:04:02.923Z,95917.94
2023-03-27T22:06:31.666Z,95881.66
2023-03-27T22:09:01.613Z,95918.78
2023-03-27T22:11:29.903Z,95917.38
2023-03-27T22:13:59.363Z,95913.28
2023-03-27T22:16:27.760Z,95913.28
2023-03-27T22:18:56.148Z,95916.91
2023-03-27T22:21:26.680Z,95922.22
2023-03-27T22:23:56.487Z,95917.13
2023-03-27T22:26:28.105Z,95924.09
2023-03-27T22:28:56.634Z,95925.50
2023-03-27T22:31:25.872Z,95902.22
2023-03-27T22:33:54.396Z,95899.19
2023-03-27T22:36:23.392Z,95928.34
2023-03-27T22:38:51.718Z,95922.63
2023-03-27T22:41:20.455Z,95920.63
2023-03-27T22:43:50.277Z,95925.66
2023-03-27T22:46:21.110Z,95931.44
2023-03-27T22:48:54.206Z,95933.06
2023-03-27T22:51:22.534Z,95940.19
2023-03-27T22:53:51.350Z,95952.19
2023-03-27T22:56:19.796Z,95945.50
2023-03-27T22:58:49.690Z,95915.66
2023-03-27T23:01:18.053Z,95948.13
2023-03-27T23:03:46.599Z,95965.19
2023-03-27T23:06:19.139Z,95969.28
2023-03-27T23:08:48.811Z,95971.31
2023-03-27T23:11:17.913Z,95963.78
2023-03-27T23:13:46.232Z,95964.84
2023-03-27T23:16:16.167Z,95978.28
2023-03-27T23:18:44.441Z,95978.75
2023-03-27T23:21:17.127Z,95967.75
2023-03-27T23:23:46.211Z,95986.22
2023-03-27T23:26:14.598Z,95984.03
2023-03-27T23:28:43.804Z,95984.03
2023-03-27T23:31:14.239Z,95973.59
2023-03-27T23:33:46.410Z,95982.38
2023-03-27T23:36:16.804Z,95987.28
2023-03-27T23:38:45.382Z,95991.31
2023-03-27T23:41:15.679Z,95988.31
2023-03-27T23:43:44.092Z,95961.97
2023-03-27T23:46:12.739Z,96003.38
2023-03-27T23:48:43.928Z,96003.16
2023-03-27T23:51:13.830Z,95660.09
2023-03-27T23:53:42.207Z,95997.69
2023-03-27T23:56:11.445Z,95959.09
2023-03-27T23:58:40.124Z,95988.69
